Time;durP1;ratioP1;P1;durP2;ratioP2;P2;SDS_P1;SDS_P2;PMS_P1;PMS_P2;Temp;Humidity;BMP_temperature;BMP_pressure;BME280_temperature;BME280_humidity;BME280_pressure;Samples;Min_cycle;Max_cycle;Signal;HPM_P1;HPM_P2
2022/09/22 00:00:25;;;;;;;;;;;14.70;91.30;;;;;;6118608;23;19927;-80
2022/09/22 00:02:54;;;;;;;;;;;14.60;91.60;;;;;;6119389;23;19941;-80
2022/09/22 00:05:22;;;;;;;;;;;14.60;91.50;;;;;;6119391;23;19917;-80
2022/09/22 00:07:50;;;;;;;;;;;14.60;91.60;;;;;;6118608;23;19928;-80
2022/09/22 00:10:17;;;;;;;;;;;14.60;91.50;;;;;;6119060;23;19917;-80
2022/09/22 00:12:46;;;;;;;;;;;14.50;91.20;;;;;;6118693;23;20299;-80
2022/09/22 00:15:13;;;;;;;;;;;14.60;91.00;;;;;;6118797;23;19984;-80
2022/09/22 00:17:39;;;;;;;;;;;14.50;91.20;;;;;;6118379;23;19922;-80
2022/09/22 00:20:06;;;;;;;;;;;14.50;91.60;;;;;;6096206;23;19917;-80
2022/09/22 00:22:33;;;;;;;;;;;14.50;91.30;;;;;;6118472;23;19937;-80
2022/09/22 00:25:00;;;;;;;;;;;14.50;91.20;;;;;;6118548;23;19927;-80
2022/09/22 00:27:26;;;;;;;;;;;14.50;91.10;;;;;;6118619;23;19917;-80
2022/09/22 00:29:53;;;;;;;;;;;14.50;91.70;;;;;;6118944;23;19917;-80
2022/09/22 00:32:21;;;;;;;;;;;14.50;91.60;;;;;;6118692;23;19917;-80
2022/09/22 00:34:48;;;;;;;;;;;14.50;91.60;;;;;;6118144;23;20008;-79
2022/09/22 00:37:15;;;;;;;;;;;14.40;91.80;;;;;;6119044;23;19917;-79
2022/09/22 00:39:43;;;;;;;;;;;14.40;91.80;;;;;;6117915;23;19948;-80
2022/09/22 00:42:11;;;;;;;;;;;14.40;91.70;;;;;;6119242;23;19921;-80
2022/09/22 00:44:39;;;;;;;;;;;14.30;92.60;;;;;;6118199;23;19924;-79
2022/09/22 00:47:15;;;;;;;;;;;14.30;92.60;;;;;;6118956;23;19940;-80
2022/09/22 00:49:45;;;;;;;;;;;14.20;92.90;;;;;;6118539;23;20299;-80
2022/09/22 00:52:14;;;;;;;;;;;14.20;92.40;;;;;;6118828;23;20297;-80
2022/09/22 00:54:41;;;;;;;;;;;14.20;92.40;;;;;;6093582;23;19917;-80
2022/09/22 00:57:13;;;;;;;;;;;14.30;92.50;;;;;;6118896;23;19917;-80
2022/09/22 00:59:40;;;;;;;;;;;14.30;92.10;;;;;;6118216;23;19991;-80
2022/09/22 01:02:07;;;;;;;;;;;14.20;92.10;;;;;;6118775;23;19939;-80
2022/09/22 01:04:34;;;;;;;;;;;14.30;91.80;;;;;;6118088;23;20409;-79
2022/09/22 01:07:01;;;;;;;;;;;14.30;91.60;;;;;;6118646;23;19917;-80
2022/09/22 01:09:31;;;;;;;;;;;14.30;91.40;;;;;;6118247;23;19991;-80
2022/09/22 01:11:59;;;;;;;;;;;14.30;90.90;;;;;;6118602;23;19917;-80
2022/09/22 01:14:35;;;;;;;;;;;14.30;90.70;;;;;;6118933;23;19921;-80
2022/09/22 01:17:20;;;;;;;;;;;14.30;90.30;;;;;;6105741;23;19923;-80
2022/09/22 01:19:48;;;;;;;;;;;14.30;90.20;;;;;;6117921;23;19988;-80
2022/09/22 01:22:31;;;;;;;;;;;14.30;90.00;;;;;;6118683;23;19921;-81
2022/09/22 01:25:03;;;;;;;;;;;14.30;90.10;;;;;;6117997;23;19996;-80
2022/09/22 01:27:47;;;;;;;;;;;14.30;90.00;;;;;;6118529;23;19988;-80
2022/09/22 01:30:24;;;;;;;;;;;14.20;90.10;;;;;;6095477;23;20021;-80
2022/09/22 01:32:54;;;;;;;;;;;14.20;90.10;;;;;;6095096;23;19948;-80
2022/09/22 01:35:39;;;;;;;;;;;14.20;89.80;;;;;;6118755;23;19996;-80
2022/09/22 01:38:09;;;;;;;;;;;14.20;89.60;;;;;;6117540;23;20327;-80
2022/09/22 01:40:56;;;;;;;;;;;14.20;87.80;;;;;;6118516;23;19921;-80
2022/09/22 01:43:29;;;;;;;;;;;14.10;88.60;;;;;;6079350;23;19917;-79
2022/09/22 01:45:57;;;;;;;;;;;14.20;87.90;;;;;;6117294;23;20258;-80
2022/09/22 01:48:26;;;;;;;;;;;14.20;86.10;;;;;;6117651;23;19921;-80
2022/09/22 01:50:56;;;;;;;;;;;14.20;86.60;;;;;;6094096;23;19917;-80
2022/09/22 01:53:25;;;;;;;;;;;14.20;87.30;;;;;;6117780;23;19928;-80
2022/09/22 01:55:54;;;;;;;;;;;14.20;87.60;;;;;;6118472;23;19997;-80
2022/09/22 01:58:24;;;;;;;;;;;14.10;88.50;;;;;;6117995;23;20406;-80
2022/09/22 02:01:12;;;;;;;;;;;14.10;88.80;;;;;;6118374;23;19921;-80
2022/09/22 02:03:47;;;;;;;;;;;14.10;88.50;;;;;;6118356;23;19917;-81
2022/09/22 02:06:24;;;;;;;;;;;14.10;88.70;;;;;;6118583;23;19988;-81
2022/09/22 02:08:56;;;;;;;;;;;14.10;88.10;;;;;;6118009;23;19924;-81
2022/09/22 02:11:23;;;;;;;;;;;14.20;88.10;;;;;;6118715;23;20250;-81
2022/09/22 02:13:50;;;;;;;;;;;14.10;89.10;;;;;;6117739;23;19948;-82
2022/09/22 02:16:19;;;;;;;;;;;14.20;88.40;;;;;;6095430;23;19996;-81
2022/09/22 02:18:48;;;;;;;;;;;14.20;88.20;;;;;;6117500;23;19928;-82
2022/09/22 02:21:15;;;;;;;;;;;14.20;87.70;;;;;;6118803;23;19917;-81
2022/09/22 02:23:43;;;;;;;;;;;14.20;87.90;;;;;;6117589;23;20356;-81
2022/09/22 02:26:11;;;;;;;;;;;14.20;89.20;;;;;;6119010;23;19921;-81
2022/09/22 02:28:40;;;;;;;;;;;14.10;89.80;;;;;;6118002;23;19924;-81
2022/09/22 02:31:08;;;;;;;;;;;14.10;88.90;;;;;;6118549;23;19917;-81
2022/09/22 02:33:51;;;;;;;;;;;14.10;90.00;;;;;;6115025;23;19921;-82
2022/09/22 02:36:17;;;;;;;;;;;14.10;90.30;;;;;;6095684;23;20291;-81
2022/09/22 02:39:13;;;;;;;;;;;14.10;90.40;;;;;;6118116;23;20275;-82
2022/09/22 02:41:55;;;;;;;;;;;14.00;90.80;;;;;;6082695;23;19921;-81
2022/09/22 02:44:42;;;;;;;;;;;14.00;90.60;;;;;;6120493;23;19951;-79
2022/09/22 02:47:15;;;;;;;;;;;14.00;90.40;;;;;;6095517;23;20350;-79
2022/09/22 02:49:42;;;;;;;;;;;14.00;90.50;;;;;;6095987;23;19927;-80
2022/09/22 02:52:10;;;;;;;;;;;14.00;90.10;;;;;;6119462;23;19927;-80
2022/09/22 02:54:38;;;;;;;;;;;14.00;90.00;;;;;;6119833;23;19998;-80
2022/09/22 02:57:05;;;;;;;;;;;14.00;90.10;;;;;;6119385;23;19984;-80
2022/09/22 02:59:32;;;;;;;;;;;14.10;89.20;;;;;;6120053;23;19918;-80
2022/09/22 03:01:58;;;;;;;;;;;14.10;88.80;;;;;;6118977;23;20345;-80
2022/09/22 03:04:25;;;;;;;;;;;14.10;89.00;;;;;;6119791;23;19918;-80
2022/09/22 03:06:52;;;;;;;;;;;14.10;88.30;;;;;;6096228;23;20250;-79
2022/09/22 03:09:19;;;;;;;;;;;14.20;87.80;;;;;;6119685;23;19992;-80
2022/09/22 03:11:45;;;;;;;;;;;14.20;88.70;;;;;;6119252;23;20324;-80
2022/09/22 03:14:12;;;;;;;;;;;14.10;88.80;;;;;;6119926;23;19917;-79
2022/09/22 03:16:39;;;;;;;;;;;14.10;88.80;;;;;;6119869;23;19923;-80
2022/09/22 03:19:06;;;;;;;;;;;14.00;87.90;;;;;;6118672;23;21878;-80
2022/09/22 03:21:32;;;;;;;;;;;14.10;87.40;;;;;;6096737;23;19988;-79
2022/09/22 03:23:59;;;;;;;;;;;14.10;86.70;;;;;;6118653;23;19917;-79
2022/09/22 03:26:26;;;;;;;;;;;14.10;85.80;;;;;;6119505;23;20364;-79
2022/09/22 03:28:53;;;;;;;;;;;14.10;85.00;;;;;;6118918;23;19984;-80
2022/09/22 03:31:20;;;;;;;;;;;14.20;85.10;;;;;;6119723;23;19917;-79
2022/09/22 03:33:46;;;;;;;;;;;14.20;85.00;;;;;;6119686;23;19917;-79
2022/09/22 03:36:18;;;;;;;;;;;14.20;84.30;;;;;;6094853;23;20279;-81
2022/09/22 03:38:44;;;;;;;;;;;14.20;84.80;;;;;;6119528;23;19917;-79
2022/09/22 03:41:11;;;;;;;;;;;14.30;84.30;;;;;;6118532;23;19926;-80
2022/09/22 03:43:38;;;;;;;;;;;14.30;84.30;;;;;;6119612;23;19952;-79
2022/09/22 03:46:05;;;;;;;;;;;14.30;84.80;;;;;;6095442;23;19917;-80
2022/09/22 03:48:31;;;;;;;;;;;14.30;84.70;;;;;;6119318;23;19920;-79
2022/09/22 03:50:58;;;;;;;;;;;14.30;84.50;;;;;;6118168;23;19924;-80
2022/09/22 03:53:25;;;;;;;;;;;14.30;84.50;;;;;;6119433;23;19992;-79
2022/09/22 03:55:52;;;;;;;;;;;14.30;85.20;;;;;;6119183;23;19917;-79
2022/09/22 03:58:20;;;;;;;;;;;14.30;86.10;;;;;;6118598;23;19917;-79
2022/09/22 04:00:47;;;;;;;;;;;14.30;86.60;;;;;;6119062;23;19992;-79
2022/09/22 04:03:14;;;;;;;;;;;14.30;85.90;;;;;;6118691;23;20239;-80
2022/09/22 04:05:47;;;;;;;;;;;14.30;88.70;;;;;;6119210;23;19932;-80
2022/09/22 04:08:13;;;;;;;;;;;14.20;90.10;;;;;;6118537;23;19917;-79
2022/09/22 04:10:40;;;;;;;;;;;14.20;89.30;;;;;;6119090;23;19917;-80
2022/09/22 04:13:07;;;;;;;;;;;14.10;87.90;;;;;;6118408;23;20343;-80
2022/09/22 04:15:33;;;;;;;;;;;14.10;87.80;;;;;;6095118;23;19917;-79
2022/09/22 04:18:00;;;;;;;;;;;14.10;87.50;;;;;;6118158;23;20242;-80
2022/09/22 04:20:27;;;;;;;;;;;14.10;87.20;;;;;;6119387;23;19933;-80
2022/09/22 04:22:53;;;;;;;;;;;14.10;86.40;;;;;;6119007;23;19917;-80
2022/09/22 04:25:20;;;;;;;;;;;14.10;85.80;;;;;;6118480;23;20246;-80
2022/09/22 04:27:47;;;;;;;;;;;14.10;84.70;;;;;;6118663;23;19993;-80
2022/09/22 04:30:14;;;;;;;;;;;14.10;86.10;;;;;;6094535;23;19947;-79
2022/09/22 04:32:40;;;;;;;;;;;14.10;84.70;;;;;;6118343;23;19917;-80
2022/09/22 04:35:07;;;;;;;;;;;14.10;84.40;;;;;;6117759;23;20235;-79
2022/09/22 04:37:34;;;;;;;;;;;14.10;84.70;;;;;;6094128;23;20313;-80
2022/09/22 04:40:01;;;;;;;;;;;14.10;85.30;;;;;;6118148;23;20343;-80
2022/09/22 04:42:28;;;;;;;;;;;14.10;84.70;;;;;;6118829;23;20247;-79
2022/09/22 04:45:00;;;;;;;;;;;14.20;84.40;;;;;;6118829;23;20232;-80
2022/09/22 04:47:30;;;;;;;;;;;14.10;83.80;;;;;;6117918;23;20245;-79
2022/09/22 04:49:57;;;;;;;;;;;14.00;84.20;;;;;;6118793;23;20347;-80
2022/09/22 04:52:24;;;;;;;;;;;14.10;84.00;;;;;;6118046;23;19988;-79
2022/09/22 04:54:51;;;;;;;;;;;14.10;84.20;;;;;;6118531;23;19949;-79
2022/09/22 04:57:17;;;;;;;;;;;14.10;83.60;;;;;;6094155;23;20001;-80
2022/09/22 04:59:46;;;;;;;;;;;14.10;83.50;;;;;;6118658;23;19949;-80
2022/09/22 05:02:13;;;;;;;;;;;14.10;83.80;;;;;;6118048;23;19923;-79
2022/09/22 05:04:39;;;;;;;;;;;14.10;83.70;;;;;;6118190;23;19923;-80
2022/09/22 05:07:06;;;;;;;;;;;14.10;83.60;;;;;;6118212;23;19921;-80
2022/09/22 05:09:33;;;;;;;;;;;14.10;83.20;;;;;;6118207;23;19945;-80
2022/09/22 05:12:00;;;;;;;;;;;14.10;82.90;;;;;;6118358;23;19917;-80
2022/09/22 05:14:28;;;;;;;;;;;14.10;82.50;;;;;;6117429;23;19917;-80
2022/09/22 05:16:55;;;;;;;;;;;14.10;82.20;;;;;;6118401;23;19917;-81
2022/09/22 05:19:22;;;;;;;;;;;14.10;81.80;;;;;;6117471;23;19921;-80
2022/09/22 05:21:49;;;;;;;;;;;14.10;81.20;;;;;;6094078;23;19917;-80
2022/09/22 05:24:15;;;;;;;;;;;14.10;80.80;;;;;;6094561;23;20008;-80
2022/09/22 05:26:42;;;;;;;;;;;14.10;80.40;;;;;;6117581;23;19923;-80
2022/09/22 05:29:09;;;;;;;;;;;14.10;80.20;;;;;;6117864;23;19928;-79
2022/09/22 05:31:35;;;;;;;;;;;14.20;80.10;;;;;;6118507;23;20016;-80
2022/09/22 05:34:02;;;;;;;;;;;14.20;80.00;;;;;;6118610;23;19951;-79
2022/09/22 05:36:29;;;;;;;;;;;14.10;80.20;;;;;;6117401;23;19933;-79
2022/09/22 05:38:56;;;;;;;;;;;14.20;80.10;;;;;;6118231;23;20339;-79
2022/09/22 05:41:23;;;;;;;;;;;14.10;80.00;;;;;;6117425;23;19974;-80
2022/09/22 05:43:49;;;;;;;;;;;14.10;79.90;;;;;;6117832;23;19921;-79
2022/09/22 05:46:16;;;;;;;;;;;14.10;79.60;;;;;;6116521;23;19999;-79
2022/09/22 05:48:43;;;;;;;;;;;14.10;79.90;;;;;;6117780;23;19948;-80
2022/09/22 05:51:10;;;;;;;;;;;14.20;79.70;;;;;;6094211;23;19948;-79
2022/09/22 05:53:36;;;;;;;;;;;14.20;79.90;;;;;;6117695;23;19921;-79
2022/09/22 05:56:03;;;;;;;;;;;14.20;79.70;;;;;;6117516;23;19947;-79
2022/09/22 05:58:30;;;;;;;;;;;14.30;79.40;;;;;;6094946;23;20394;-79
2022/09/22 06:00:57;;;;;;;;;;;14.30;79.30;;;;;;6118188;23;19992;-79
2022/09/22 06:03:23;;;;;;;;;;;14.40;79.50;;;;;;6117078;23;19991;-79
2022/09/22 06:05:50;;;;;;;;;;;14.40;79.10;;;;;;6117610;23;20254;-79
2022/09/22 06:08:17;;;;;;;;;;;14.50;79.10;;;;;;6117159;23;20000;-80
2022/09/22 06:10:44;;;;;;;;;;;14.50;78.90;;;;;;6117703;23;19923;-80
2022/09/22 06:13:10;;;;;;;;;;;14.60;78.40;;;;;;6092581;23;19921;-79
2022/09/22 06:15:37;;;;;;;;;;;14.60;78.00;;;;;;6119596;23;19921;-79
2022/09/22 06:18:06;;;;;;;;;;;14.70;77.00;;;;;;6118984;23;19996;-80
2022/09/22 06:20:36;;;;;;;;;;;14.70;75.30;;;;;;6095675;23;19945;-79
2022/09/22 06:23:03;;;;;;;;;;;14.70;75.90;;;;;;6118852;23;20406;-80
2022/09/22 06:25:30;;;;;;;;;;;14.80;75.40;;;;;;6116724;23;20381;-79
2022/09/22 06:27:58;;;;;;;;;;;14.80;75.30;;;;;;6119526;23;19937;-78
2022/09/22 06:30:25;;;;;;;;;;;14.90;74.70;;;;;;6119017;23;19917;-79
2022/09/22 06:32:53;;;;;;;;;;;14.90;74.40;;;;;;6119677;23;19940;-79
2022/09/22 06:35:19;;;;;;;;;;;14.90;73.00;;;;;;6118837;23;20330;-79
2022/09/22 06:37:55;;;;;;;;;;;15.00;73.40;;;;;;6119917;23;19953;-80
2022/09/22 06:40:25;;;;;;;;;;;15.00;72.40;;;;;;6119377;23;19928;-80
2022/09/22 06:43:00;;;;;;;;;;;15.10;72.30;;;;;;6120093;23;19921;-79
2022/09/22 06:45:30;;;;;;;;;;;15.10;72.40;;;;;;6119195;23;19947;-79
2022/09/22 06:47:58;;;;;;;;;;;15.20;70.20;;;;;;6120092;23;19921;-80
2022/09/22 06:50:26;;;;;;;;;;;15.20;69.60;;;;;;6119252;23;19996;-79
2022/09/22 06:52:59;;;;;;;;;;;15.30;69.90;;;;;;6118989;23;19972;-80
2022/09/22 06:55:29;;;;;;;;;;;15.40;70.10;;;;;;6119265;23;19921;-80
2022/09/22 06:58:01;;;;;;;;;;;15.40;70.50;;;;;;6119714;23;19989;-79
2022/09/22 07:00:32;;;;;;;;;;;15.50;69.80;;;;;;6118959;23;19924;-79
2022/09/22 07:03:04;;;;;;;;;;;15.50;69.30;;;;;;6119584;23;19918;-80
2022/09/22 07:05:31;;;;;;;;;;;15.60;68.40;;;;;;6119356;23;19917;-80
2022/09/22 07:07:57;;;;;;;;;;;15.60;68.30;;;;;;6119961;23;19995;-80
2022/09/22 07:10:24;;;;;;;;;;;15.70;67.80;;;;;;6118944;23;20353;-80
2022/09/22 07:12:51;;;;;;;;;;;15.70;67.20;;;;;;6119567;23;20016;-79
2022/09/22 07:15:17;;;;;;;;;;;15.80;67.20;;;;;;6118419;23;20329;-81
2022/09/22 07:17:44;;;;;;;;;;;15.90;66.40;;;;;;6119519;23;19917;-80
2022/09/22 07:20:11;;;;;;;;;;;16.00;66.50;;;;;;6119742;23;19921;-81
2022/09/22 07:22:38;;;;;;;;;;;16.20;66.40;;;;;;6119516;23;19940;-81
2022/09/22 07:25:06;;;;;;;;;;;16.30;65.70;;;;;;6095366;23;20334;-80
2022/09/22 07:27:34;;;;;;;;;;;16.40;65.60;;;;;;6118556;23;19921;-81
2022/09/22 07:30:00;;;;;;;;;;;16.50;64.70;;;;;;6119310;23;19917;-80
2022/09/22 07:32:31;;;;;;;;;;;16.60;64.50;;;;;;6118798;23;20250;-80
2022/09/22 07:34:57;;;;;;;;;;;16.70;65.00;;;;;;6119860;23;19917;-80
2022/09/22 07:37:24;;;;;;;;;;;16.90;63.60;;;;;;6118838;23;19923;-81
2022/09/22 07:39:51;;;;;;;;;;;17.00;63.00;;;;;;6119593;23;19921;-81
2022/09/22 07:42:18;;;;;;;;;;;17.10;63.70;;;;;;6119275;23;19939;-80
2022/09/22 07:50:17;;;;;;;;;;;17.40;61.50;;;;;;6096724;23;19921;-81
2022/09/22 07:52:49;;;;;;;;;;;17.50;60.50;;;;;;6094335;23;19917;-81
2022/09/22 07:55:15;;;;;;;;;;;17.60;60.80;;;;;;6117835;23;20232;-80
2022/09/22 07:57:42;;;;;;;;;;;17.70;60.90;;;;;;6116639;23;19917;-81
2022/09/22 08:00:09;;;;;;;;;;;17.90;58.90;;;;;;6118654;23;20279;-81
2022/09/22 08:02:36;;;;;;;;;;;18.00;59.40;;;;;;6094969;23;19921;-81
2022/09/22 08:05:03;;;;;;;;;;;18.10;58.90;;;;;;6118903;23;20361;-81
2022/09/22 08:07:31;;;;;;;;;;;18.20;58.40;;;;;;6118344;23;19924;-80
2022/09/22 08:09:58;;;;;;;;;;;18.30;56.90;;;;;;6096393;23;19917;-86
2022/09/22 08:12:25;;;;;;;;;;;18.10;58.10;;;;;;6118080;23;19989;-81
2022/09/22 08:14:52;;;;;;;;;;;18.10;57.80;;;;;;6096851;23;19996;-81
2022/09/22 08:17:19;;;;;;;;;;;17.80;57.90;;;;;;6118641;23;19917;-81
2022/09/22 08:19:45;;;;;;;;;;;18.10;58.30;;;;;;6093553;23;19917;-81
2022/09/22 08:22:12;;;;;;;;;;;18.40;58.20;;;;;;6118916;23;19920;-81
2022/09/22 08:24:39;;;;;;;;;;;18.50;55.30;;;;;;6118586;23;19984;-81
2022/09/22 08:27:05;;;;;;;;;;;18.60;55.60;;;;;;6119011;23;20232;-81
2022/09/22 08:29:32;;;;;;;;;;;18.70;55.60;;;;;;6118263;23;19992;-81
2022/09/22 08:31:59;;;;;;;;;;;18.80;54.40;;;;;;6118553;23;20331;-81
2022/09/22 08:34:25;;;;;;;;;;;18.90;54.10;;;;;;6117756;23;20249;-81
2022/09/22 08:36:53;;;;;;;;;;;18.90;53.50;;;;;;6118801;23;19944;-80
2022/09/22 08:39:20;;;;;;;;;;;19.10;52.80;;;;;;6117745;23;19999;-81
2022/09/22 08:41:54;;;;;;;;;;;19.20;52.20;;;;;;6118149;23;19993;-80
2022/09/22 08:44:38;;;;;;;;;;;19.30;49.90;;;;;;6118802;23;19985;-80
2022/09/22 08:47:10;;;;;;;;;;;19.50;50.50;;;;;;6118252;23;20240;-80
2022/09/22 08:52:25;;;;;;;;;;;19.70;50.30;;;;;;6095491;23;19918;-80
2022/09/22 08:54:58;;;;;;;;;;;19.60;48.80;;;;;;6118488;23;19917;-80
2022/09/22 08:57:34;;;;;;;;;;;19.70;50.10;;;;;;6117911;23;19917;-80
2022/09/22 09:00:06;;;;;;;;;;;19.80;48.60;;;;;;6118851;23;19928;-80
2022/09/22 09:02:38;;;;;;;;;;;19.90;48.30;;;;;;6094100;23;19923;-80
2022/09/22 09:05:27;;;;;;;;;;;19.90;48.60;;;;;;6118746;23;20231;-80
2022/09/22 09:08:06;;;;;;;;;;;20.10;48.00;;;;;;6117858;23;20321;-80
2022/09/22 09:10:52;;;;;;;;;;;20.10;47.70;;;;;;6118328;23;19953;-80
2022/09/22 09:13:35;;;;;;;;;;;19.80;47.30;;;;;;6118547;23;19945;-80
2022/09/22 09:16:03;;;;;;;;;;;19.70;47.40;;;;;;6118132;23;19917;-80
2022/09/22 09:18:32;;;;;;;;;;;19.90;46.50;;;;;;6118407;23;19920;-81
2022/09/22 09:21:01;;;;;;;;;;;19.80;45.80;;;;;;6093856;23;19995;-81
2022/09/22 09:23:42;;;;;;;;;;;20.00;47.50;;;;;;6118640;23;19917;-83
2022/09/22 09:26:29;;;;;;;;;;;20.10;43.90;;;;;;6114704;23;20334;-80
2022/09/22 09:28:57;;;;;;;;;;;20.00;45.20;;;;;;6118223;23;19996;-80
2022/09/22 09:31:31;;;;;;;;;;;20.10;45.20;;;;;;6117120;23;19992;-81
2022/09/22 09:34:04;;;;;;;;;;;20.40;44.90;;;;;;6118390;23;20250;-80
2022/09/22 09:36:36;;;;;;;;;;;20.30;41.20;;;;;;6117042;23;19949;-81
2022/09/22 09:39:12;;;;;;;;;;;20.20;41.20;;;;;;6094968;23;20390;-80
2022/09/22 09:41:40;;;;;;;;;;;20.40;39.70;;;;;;6117792;23;20253;-80
2022/09/22 09:44:11;;;;;;;;;;;20.50;39.10;;;;;;6118308;23;19945;-80
2022/09/22 09:46:53;;;;;;;;;;;20.60;39.70;;;;;;6095274;23;19929;-80
2022/09/22 09:49:20;;;;;;;;;;;20.40;38.30;;;;;;6117629;23;20501;-80
2022/09/22 09:51:52;;;;;;;;;;;20.40;38.60;;;;;;6120481;23;19921;-80
2022/09/22 09:54:19;;;;;;;;;;;20.30;38.20;;;;;;6116891;23;20254;-80
2022/09/22 09:57:05;;;;;;;;;;;20.40;42.00;;;;;;6119966;23;19921;-80
2022/09/22 10:02:29;;;;;;;;;;;20.30;40.30;;;;;;6096468;23;19953;-80
2022/09/22 10:05:00;;;;;;;;;;;19.90;40.30;;;;;;6119973;23;19921;-80
2022/09/22 10:08:00;;;;;;;;;;;20.20;40.80;;;;;;6119416;23;20338;-80
2022/09/22 10:10:27;;;;;;;;;;;20.20;39.10;;;;;;6063271;23;19941;-81
2022/09/22 10:13:15;;;;;;;;;;;20.40;39.30;;;;;;6096256;23;19932;-80
2022/09/22 10:15:58;;;;;;;;;;;20.50;38.80;;;;;;6120942;23;19940;-80
2022/09/22 10:18:25;;;;;;;;;;;20.60;37.80;;;;;;6119328;23;19917;-80
2022/09/22 10:21:09;;;;;;;;;;;20.70;36.70;;;;;;6120212;23;19928;-81
2022/09/22 10:23:35;;;;;;;;;;;20.90;38.30;;;;;;6119202;23;20673;-80
2022/09/22 10:26:16;;;;;;;;;;;21.10;37.70;;;;;;6096908;23;19957;-80
2022/09/22 10:28:43;;;;;;;;;;;21.20;36.60;;;;;;6118932;23;19997;-80
2022/09/22 10:31:20;;;;;;;;;;;21.00;35.80;;;;;;6119929;23;19952;-81
2022/09/22 10:33:54;;;;;;;;;;;20.80;37.60;;;;;;6118965;23;19972;-80
2022/09/22 10:36:24;;;;;;;;;;;20.80;38.20;;;;;;6096746;23;20296;-80
2022/09/22 10:38:52;;;;;;;;;;;20.60;36.60;;;;;;6118937;23;19921;-80
2022/09/22 10:41:29;;;;;;;;;;;20.70;37.50;;;;;;6118270;23;19957;-80
2022/09/22 10:44:03;;;;;;;;;;;20.80;38.00;;;;;;6097149;23;19940;-80
2022/09/22 10:46:56;;;;;;;;;;;21.00;37.60;;;;;;6115038;23;19961;-81
2022/09/22 10:49:36;;;;;;;;;;;21.10;37.80;;;;;;6119951;23;19921;-80
2022/09/22 10:52:13;;;;;;;;;;;21.20;36.00;;;;;;6121342;23;20310;-81
2022/09/22 10:54:44;;;;;;;;;;;21.00;37.80;;;;;;6118876;23;20255;-80
2022/09/22 10:57:22;;;;;;;;;;;21.30;37.70;;;;;;6096560;23;19920;-80
2022/09/22 11:00:00;;;;;;;;;;;21.60;37.50;;;;;;6118927;23;20297;-81
2022/09/22 11:02:34;;;;;;;;;;;21.70;36.60;;;;;;6119099;23;19927;-80
2022/09/22 11:05:06;;;;;;;;;;;21.70;36.60;;;;;;6118991;23;19969;-80
2022/09/22 11:13:21;;;;;;;;;;;21.90;37.00;;;;;;6095047;23;19927;-80
2022/09/22 11:15:53;;;;;;;;;;;21.80;36.40;;;;;;6119355;23;19988;-80
2022/09/22 11:18:42;;;;;;;;;;;21.60;36.00;;;;;;6118540;23;19921;-81
2022/09/22 11:21:12;;;;;;;;;;;21.70;36.50;;;;;;6119063;23;19921;-80
2022/09/22 11:23:55;;;;;;;;;;;21.60;35.80;;;;;;6118709;23;19948;-80
2022/09/22 11:26:40;;;;;;;;;;;21.30;37.30;;;;;;6118912;23;19917;-81
2022/09/22 11:29:33;;;;;;;;;;;21.30;37.80;;;;;;6118941;23;20008;-81
2022/09/22 11:32:18;;;;;;;;;;;21.70;39.40;;;;;;6119491;23;20310;-81
2022/09/22 11:35:04;;;;;;;;;;;22.20;37.50;;;;;;6118356;23;20012;-81
2022/09/22 11:37:41;;;;;;;;;;;22.10;34.20;;;;;;6119637;23;19917;-81
2022/09/22 11:40:20;;;;;;;;;;;22.40;35.20;;;;;;6119077;23;19924;-80
2022/09/22 11:43:05;;;;;;;;;;;22.50;35.00;;;;;;6118690;23;19917;-80
2022/09/22 11:45:55;;;;;;;;;;;22.20;34.50;;;;;;6103872;23;19927;-80
2022/09/22 11:48:22;;;;;;;;;;;21.70;36.00;;;;;;6121603;23;19976;-80
2022/09/22 11:50:52;;;;;;;;;;;21.50;36.60;;;;;;6121804;23;19928;-79
2022/09/22 11:53:28;;;;;;;;;;;21.00;37.00;;;;;;6118288;23;19925;-80
2022/09/22 11:56:02;;;;;;;;;;;21.50;36.90;;;;;;6120035;23;19941;-80
2022/09/22 11:58:30;;;;;;;;;;;22.10;36.70;;;;;;6119533;23;19939;-79
2022/09/22 12:01:00;;;;;;;;;;;22.10;35.40;;;;;;6119339;23;19945;-80
2022/09/22 12:03:31;;;;;;;;;;;22.30;35.50;;;;;;6118610;23;19928;-80
2022/09/22 12:06:04;;;;;;;;;;;22.40;34.80;;;;;;6121380;23;20334;-79
2022/09/22 12:08:35;;;;;;;;;;;22.10;34.90;;;;;;6120190;23;19928;-80
2022/09/22 12:11:05;;;;;;;;;;;22.00;35.70;;;;;;6120532;23;19921;-80
2022/09/22 12:13:32;;;;;;;;;;;21.90;34.60;;;;;;6118513;23;19988;-79
2022/09/22 12:16:18;;;;;;;;;;;22.20;34.70;;;;;;6119280;23;19969;-79
2022/09/22 12:18:57;;;;;;;;;;;22.30;33.50;;;;;;6122041;23;19984;-80
2022/09/22 12:21:42;;;;;;;;;;;22.60;35.50;;;;;;6118725;23;19921;-80
2022/09/22 12:24:10;;;;;;;;;;;22.50;34.70;;;;;;6124710;23;20350;-80
2022/09/22 12:26:37;;;;;;;;;;;22.40;34.90;;;;;;6120716;23;19944;-80
2022/09/22 12:29:21;;;;;;;;;;;22.80;33.90;;;;;;6121728;23;20257;-80
2022/09/22 12:31:50;;;;;;;;;;;22.80;34.70;;;;;;6121427;23;20014;-80
2022/09/22 12:34:22;;;;;;;;;;;23.30;34.40;;;;;;6121691;23;19941;-80
2022/09/22 12:36:54;;;;;;;;;;;23.70;33.60;;;;;;6100173;23;19917;-80
2022/09/22 12:39:29;;;;;;;;;;;24.00;33.50;;;;;;6129739;23;19941;-80
2022/09/22 12:41:58;;;;;;;;;;;24.50;32.80;;;;;;6126890;23;19957;-81
2022/09/22 12:44:26;;;;;;;;;;;24.70;32.10;;;;;;6124037;23;19917;-80
2022/09/22 12:46:56;;;;;;;;;;;24.50;32.00;;;;;;6119112;23;19965;-80
2022/09/22 12:49:22;;;;;;;;;;;24.50;31.80;;;;;;6121983;23;19947;-79
2022/09/22 12:51:50;;;;;;;;;;;24.40;31.10;;;;;;6118398;23;19917;-80
2022/09/22 12:54:20;;;;;;;;;;;24.50;31.70;;;;;;6118519;23;20338;-79
2022/09/22 12:56:57;;;;;;;;;;;24.30;32.30;;;;;;6115654;23;19923;-80
2022/09/22 12:59:37;;;;;;;;;;;24.40;32.70;;;;;;6120569;23;19917;-79
2022/09/22 13:02:16;;;;;;;;;;;24.10;32.60;;;;;;6064984;23;19917;-79
2022/09/22 13:04:55;;;;;;;;;;;24.10;32.80;;;;;;6065175;23;19993;-80
2022/09/22 13:07:41;;;;;;;;;;;24.10;31.60;;;;;;6065756;23;19922;-79
2022/09/22 13:10:23;;;;;;;;;;;23.60;31.70;;;;;;6079433;23;19917;-79
2022/09/22 13:12:56;;;;;;;;;;;23.50;32.70;;;;;;6117394;23;19917;-80
2022/09/22 13:15:23;;;;;;;;;;;23.80;32.70;;;;;;6095724;23;19944;-80
2022/09/22 13:17:50;;;;;;;;;;;24.10;32.70;;;;;;6094665;23;19917;-80
2022/09/22 13:20:18;;;;;;;;;;;23.90;32.00;;;;;;6118075;23;19956;-80
2022/09/22 13:22:45;;;;;;;;;;;22.80;32.90;;;;;;6117070;23;19921;-80
2022/09/22 13:25:23;;;;;;;;;;;22.50;34.90;;;;;;6118626;23;19924;-80
2022/09/22 13:28:03;;;;;;;;;;;22.70;35.00;;;;;;6118223;23;20315;-80
2022/09/22 13:30:31;;;;;;;;;;;23.00;33.70;;;;;;6094317;23;19996;-80
2022/09/22 13:32:58;;;;;;;;;;;23.30;33.40;;;;;;6117734;23;19921;-80
2022/09/22 13:35:30;;;;;;;;;;;23.70;32.80;;;;;;6118687;23;20252;-80
2022/09/22 13:37:58;;;;;;;;;;;24.10;32.10;;;;;;6094130;23;20235;-80
2022/09/22 13:40:27;;;;;;;;;;;24.00;31.90;;;;;;6120167;23;19991;-80
2022/09/22 13:42:58;;;;;;;;;;;23.80;32.40;;;;;;6130147;23;19927;-81
2022/09/22 13:45:26;;;;;;;;;;;24.30;32.50;;;;;;6130901;23;19948;-80
2022/09/22 13:47:56;;;;;;;;;;;24.70;31.10;;;;;;6122889;23;19916;-80
2022/09/22 13:50:23;;;;;;;;;;;24.00;30.50;;;;;;6123957;23;19991;-80
2022/09/22 13:52:50;;;;;;;;;;;23.40;33.40;;;;;;6120070;23;19995;-80
2022/09/22 13:55:20;;;;;;;;;;;23.70;33.00;;;;;;6122893;23;19965;-79
2022/09/22 13:57:47;;;;;;;;;;;23.90;32.50;;;;;;6122899;23;20326;-81
2022/09/22 14:00:34;;;;;;;;;;;23.50;32.00;;;;;;6128865;23;19933;-80
2022/09/22 14:03:21;;;;;;;;;;;23.70;31.80;;;;;;6100387;23;19921;-80
2022/09/22 14:05:48;;;;;;;;;;;24.00;32.20;;;;;;6134840;23;19917;-81
2022/09/22 14:08:22;;;;;;;;;;;24.10;31.00;;;;;;6107040;23;19924;-80
2022/09/22 14:10:49;;;;;;;;;;;24.00;31.50;;;;;;6122808;23;19917;-80
2022/09/22 14:13:34;;;;;;;;;;;23.90;31.80;;;;;;6123539;23;20858;-80
2022/09/22 14:16:06;;;;;;;;;;;23.70;32.20;;;;;;6124832;23;19921;-80
2022/09/22 14:18:36;;;;;;;;;;;23.50;31.70;;;;;;6123994;23;19917;-79
2022/09/22 14:21:06;;;;;;;;;;;23.70;32.40;;;;;;6104157;23;20368;-81
2022/09/22 14:23:33;;;;;;;;;;;23.70;32.20;;;;;;6123512;23;19917;-80
2022/09/22 14:26:17;;;;;;;;;;;23.90;32.00;;;;;;6119736;23;20005;-80
2022/09/22 14:28:44;;;;;;;;;;;23.70;32.40;;;;;;6118845;23;19993;-80
2022/09/22 14:31:12;;;;;;;;;;;23.90;31.70;;;;;;6117689;23;20253;-80
2022/09/22 14:33:39;;;;;;;;;;;23.50;33.50;;;;;;6117519;23;19920;-79
2022/09/22 14:36:07;;;;;;;;;;;23.60;32.50;;;;;;6095206;23;19996;-79
2022/09/22 14:38:38;;;;;;;;;;;23.40;32.20;;;;;;6097563;23;19984;-79
2022/09/22 14:41:20;;;;;;;;;;;23.00;32.90;;;;;;6118315;23;19921;-79
2022/09/22 14:43:49;;;;;;;;;;;23.10;32.50;;;;;;6096988;23;19923;-79
2022/09/22 14:46:32;;;;;;;;;;;23.30;32.80;;;;;;6118802;23;19956;-79
2022/09/22 14:49:22;;;;;;;;;;;22.90;33.10;;;;;;6096041;23;19917;-79
2022/09/22 14:51:49;;;;;;;;;;;22.60;33.70;;;;;;6120323;23;19917;-80
2022/09/22 14:54:16;;;;;;;;;;;22.40;34.30;;;;;;6118882;23;19995;-80